Time;durP1;ratioP1;P1;durP2;ratioP2;P2;SDS_P1;SDS_P2;PMS_P1;PMS_P2;Temp;Humidity;BMP_temperature;BMP_pressure;BME280_temperature;BME280_humidity;BME280_pressure;Samples;Min_cycle;Max_cycle;Signal;HPM_P1;HPM_P2
2023/02/03 00:00:27;;;;;;;4.80;3.70;;;4.30;99.90;;;;;;4774117;30;20180;-89
2023/02/03 00:02:53;;;;;;;6.73;4.23;;;4.30;99.90;;;;;;4773893;30;20172;-93
2023/02/03 00:05:20;;;;;;;6.40;4.10;;;4.40;99.90;;;;;;4773116;30;20188;-92
2023/02/03 00:07:47;;;;;;;5.57;4.13;;;4.40;99.90;;;;;;4773839;30;20604;-86
2023/02/03 00:10:13;;;;;;;6.93;4.57;;;4.40;99.90;;;;;;4774085;30;20195;-92
2023/02/03 00:12:39;;;;;;;5.80;4.00;;;4.50;99.90;;;;;;4772892;30;20192;-92
2023/02/03 00:15:06;;;;;;;6.17;4.10;;;4.50;99.90;;;;;;4772924;30;20241;-88
2023/02/03 00:17:31;;;;;;;6.07;4.30;;;4.50;99.90;;;;;;4772794;30;20253;-88
2023/02/03 00:19:57;;;;;;;6.07;4.63;;;4.60;99.90;;;;;;4772673;30;20192;-92
2023/02/03 00:22:25;;;;;;;7.53;4.93;;;4.60;99.90;;;;;;4772673;30;20208;-88
2023/02/03 00:24:50;;;;;;;7.17;4.90;;;4.60;99.90;;;;;;4773850;30;20216;-93
2023/02/03 00:27:16;;;;;;;8.17;5.30;;;4.60;99.90;;;;;;4773768;30;20533;-91
2023/02/03 00:29:42;;;;;;;6.70;4.90;;;4.70;99.90;;;;;;4772444;30;20283;-93
2023/02/03 00:32:08;;;;;;;7.73;5.10;;;4.70;99.90;;;;;;4772498;30;20195;-88
2023/02/03 00:34:34;;;;;;;10.17;5.50;;;4.80;99.90;;;;;;4773520;30;20704;-87
2023/02/03 00:37:00;;;;;;;8.30;5.30;;;4.80;99.90;;;;;;4773067;30;20278;-90
2023/02/03 00:39:26;;;;;;;8.53;5.50;;;4.80;99.90;;;;;;4772683;30;20647;-86
2023/02/03 00:41:53;;;;;;;6.90;5.23;;;4.80;99.90;;;;;;4772435;30;20252;-91
2023/02/03 00:44:19;;;;;;;7.80;5.80;;;4.80;99.90;;;;;;4773494;30;20300;-88
2023/02/03 00:46:45;;;;;;;9.50;5.90;;;4.90;99.90;;;;;;4772168;30;20232;-89
2023/02/03 00:49:11;;;;;;;10.63;6.60;;;4.90;99.90;;;;;;4772265;30;20196;-89
2023/02/03 00:51:39;;;;;;;9.97;6.07;;;4.90;99.90;;;;;;4771928;30;20188;-90
2023/02/03 00:54:05;;;;;;;10.60;6.37;;;4.90;99.90;;;;;;4772037;30;20192;-89
2023/02/03 00:56:31;;;;;;;10.47;6.87;;;5.00;99.90;;;;;;4773289;30;20180;-87
2023/02/03 00:58:56;;;;;;;10.47;7.43;;;5.00;99.90;;;;;;4773207;30;20187;-89
2023/02/03 01:01:24;;;;;;;12.57;8.07;;;5.00;99.90;;;;;;4772926;30;20216;-89
2023/02/03 01:03:50;;;;;;;13.97;8.13;;;5.00;99.90;;;;;;4771887;30;20219;-90
2023/02/03 01:06:20;;;;;;;11.67;7.87;;;5.10;99.90;;;;;;4772838;30;20579;-88
2023/02/03 01:08:47;;;;;;;16.87;9.83;;;5.10;99.90;;;;;;4771880;30;20537;-88
2023/02/03 01:11:26;;;;;;;14.03;9.27;;;5.10;99.90;;;;;;5162581;24;20255;-89
2023/02/03 01:13:59;;;;;;;15.17;9.87;;;5.20;99.90;;;;;;4770512;30;20261;-89
2023/02/03 01:16:25;;;;;;;16.67;10.13;;;5.20;99.90;;;;;;4770380;29;20190;-89
2023/02/03 01:18:55;;;;;;;15.30;9.67;;;5.30;99.90;;;;;;4770487;30;20184;-89
2023/02/03 01:21:25;;;;;;;19.47;11.17;;;5.30;99.90;;;;;;4770684;30;20198;-88
2023/02/03 01:23:52;;;;;;;19.33;10.73;;;5.40;99.90;;;;;;4770196;30;20220;-89
2023/02/03 01:26:20;;;;;;;16.73;10.90;;;5.40;99.90;;;;;;4770186;30;20172;-89
2023/02/03 01:28:55;;;;;;;21.57;11.70;;;5.40;99.90;;;;;;4770155;30;20255;-89
2023/02/03 01:31:31;;;;;;;22.07;12.20;;;5.50;99.90;;;;;;4770323;30;20180;-89
2023/02/03 01:33:57;;;;;;;21.27;12.70;;;5.60;99.90;;;;;;4770047;30;20212;-89
2023/02/03 01:36:25;;;;;;;29.10;14.80;;;5.60;99.90;;;;;;4770228;30;20601;-89
2023/02/03 01:38:52;;;;;;;26.07;14.17;;;5.70;99.90;;;;;;4769915;30;20203;-90
2023/02/03 01:41:21;;;;;;;28.97;15.47;;;5.70;99.90;;;;;;4769796;30;20183;-89
2023/02/03 01:43:50;;;;;;;32.33;15.40;;;5.70;99.90;;;;;;4769635;30;20306;-89
2023/02/03 01:46:34;;;;;;;34.90;17.67;;;5.80;99.90;;;;;;4769882;30;20183;-90
2023/02/03 01:49:15;;;;;;;35.50;18.53;;;5.90;99.90;;;;;;4769543;30;20671;-89
2023/02/03 01:51:43;;;;;;;42.80;20.23;;;6.00;99.90;;;;;;4769705;30;20271;-88
2023/02/03 01:54:13;;;;;;;45.90;21.87;;;6.10;99.90;;;;;;4770692;30;20685;-89
2023/02/03 01:56:44;;;;;;;45.90;21.10;;;6.10;99.90;;;;;;4770268;30;20164;-89
2023/02/03 01:59:12;;;;;;;44.20;23.70;;;6.20;99.90;;;;;;4769518;30;20215;-89
2023/02/03 02:01:38;;;;;;;45.03;23.17;;;6.30;99.90;;;;;;4769551;30;20570;-90
2023/02/03 02:04:05;;;;;;;40.47;22.10;;;6.40;99.90;;;;;;4769188;30;20215;-89
2023/02/03 02:06:31;;;;;;;52.07;23.53;;;6.50;99.90;;;;;;4770378;30;20720;-89
2023/02/03 02:08:59;;;;;;;44.33;23.83;;;6.70;99.90;;;;;;4769093;30;20270;-90
2023/02/03 02:11:26;;;;;;;43.70;22.93;;;6.70;99.90;;;;;;4769172;30;20227;-89
2023/02/03 02:13:54;;;;;;;43.93;21.93;;;6.80;99.90;;;;;;4769053;30;20637;-89
2023/02/03 02:16:42;;;;;;;35.47;21.07;;;6.80;99.90;;;;;;4769256;30;20213;-89
2023/02/03 02:19:45;;;;;;;37.13;20.73;;;6.80;99.90;;;;;;4769106;30;20188;-88
2023/02/03 02:22:25;;;;;;;37.53;21.67;;;6.90;99.90;;;;;;4770414;30;20229;-88
2023/02/03 02:25:27;;;;;;;34.70;20.57;;;6.90;99.90;;;;;;4770336;30;20246;-89
2023/02/03 02:28:18;;;;;;;36.10;20.90;;;6.90;99.90;;;;;;4769063;30;20176;-89
2023/02/03 02:31:14;;;;;;;35.17;20.60;;;7.00;99.90;;;;;;4769436;30;20252;-89
2023/02/03 02:33:50;;;;;;;29.20;18.30;;;7.00;99.90;;;;;;4769972;30;20204;-89
2023/02/03 02:36:25;;;;;;;34.97;18.83;;;7.00;99.90;;;;;;4769181;30;20184;-89
2023/02/03 02:39:03;;;;;;;26.07;17.37;;;7.10;99.90;;;;;;4769312;30;20275;-90
2023/02/03 02:41:57;;;;;;;25.90;17.77;;;7.10;99.90;;;;;;4770072;30;20190;-88
2023/02/03 02:44:28;;;;;;;31.50;17.07;;;7.10;99.90;;;;;;4768913;30;20220;-89
2023/02/03 02:46:59;;;;;;;26.67;16.47;;;7.10;99.90;;;;;;4769450;30;20267;-88
2023/02/03 02:49:40;;;;;;;28.10;16.87;;;7.00;99.90;;;;;;4769063;30;20184;-89
2023/02/03 02:52:08;;;;;;;25.30;15.93;;;7.00;99.90;;;;;;4768914;30;20267;-90
2023/02/03 02:54:40;;;;;;;28.50;15.60;;;7.00;99.90;;;;;;4768950;30;20204;-89
2023/02/03 02:57:10;;;;;;;25.97;15.70;;;7.10;99.90;;;;;;4768656;30;20279;-89
2023/02/03 02:59:36;;;;;;;24.40;14.43;;;7.20;99.90;;;;;;4768969;30;20192;-89
2023/02/03 03:02:02;;;;;;;22.87;14.80;;;7.10;99.90;;;;;;4769057;30;20573;-89
2023/02/03 03:04:32;;;;;;;22.07;14.37;;;7.10;99.90;;;;;;4768840;30;20219;-90
2023/02/03 03:07:11;;;;;;;27.07;14.27;;;7.10;99.90;;;;;;4768929;30;20184;-89
2023/02/03 03:09:47;;;;;;;27.37;13.67;;;7.20;99.90;;;;;;4771621;30;20250;-88
2023/02/03 03:12:31;;;;;;;18.57;11.87;;;7.20;99.90;;;;;;4772119;30;20234;-89
2023/02/03 03:15:02;;;;;;;20.20;11.43;;;7.30;99.90;;;;;;4772386;30;20253;-90
2023/02/03 03:17:32;;;;;;;19.67;11.30;;;7.40;99.90;;;;;;4771900;30;20184;-90
2023/02/03 03:20:04;;;;;;;19.87;11.30;;;7.40;99.90;;;;;;4773313;30;20229;-89
2023/02/03 03:22:35;;;;;;;21.37;11.10;;;7.30;99.90;;;;;;4773104;30;20180;-89
2023/02/03 03:25:18;;;;;;;15.07;10.03;;;7.30;99.90;;;;;;4772046;30;20208;-89
2023/02/03 03:27:56;;;;;;;18.20;10.53;;;7.40;99.90;;;;;;4772121;30;20214;-88
2023/02/03 03:30:27;;;;;;;16.00;9.57;;;7.40;99.90;;;;;;4771868;30;20180;-90
2023/02/03 03:32:53;;;;;;;18.57;10.07;;;7.40;99.90;;;;;;4771904;30;20206;-88
2023/02/03 03:35:19;;;;;;;15.27;10.20;;;7.40;99.90;;;;;;4771739;30;20176;-89
2023/02/03 03:37:51;;;;;;;16.40;9.57;;;7.40;99.90;;;;;;4771642;30;20180;-89
2023/02/03 03:40:40;;;;;;;14.77;9.27;;;7.40;99.90;;;;;;4771653;30;20728;-88
2023/02/03 03:43:20;;;;;;;11.43;8.30;;;7.50;99.90;;;;;;4753446;30;20212;-89
2023/02/03 03:46:00;;;;;;;18.80;9.10;;;7.50;99.90;;;;;;4753804;30;20274;-89
2023/02/03 03:48:46;;;;;;;13.07;8.10;;;7.60;99.90;;;;;;4753346;30;20192;-90
2023/02/03 03:51:38;;;;;;;11.87;8.00;;;7.60;99.90;;;;;;4753450;30;20671;-90
2023/02/03 03:54:09;;;;;;;11.87;7.37;;;7.70;99.90;;;;;;4753031;30;20212;-88
2023/02/03 03:56:40;;;;;;;15.97;7.77;;;7.60;99.90;;;;;;4753264;30;20185;-88
2023/02/03 03:59:10;;;;;;;14.70;7.57;;;7.60;99.90;;;;;;4753053;30;20173;-88
2023/02/03 04:01:37;;;;;;;13.30;7.57;;;7.70;99.90;;;;;;4753273;30;20180;-90
2023/02/03 04:04:08;;;;;;;13.07;7.70;;;7.60;99.90;;;;;;4753290;30;20307;-89
2023/02/03 04:06:34;;;;;;;11.77;7.73;;;7.60;99.90;;;;;;4753131;30;20184;-89
2023/02/03 04:09:01;;;;;;;12.07;8.17;;;7.70;99.90;;;;;;4753323;30;20177;-88
2023/02/03 04:14:11;;;;;;;17.27;7.63;;;7.60;99.90;;;;;;4754145;30;20292;-90
2023/02/03 04:16:36;;;;;;;15.07;7.77;;;7.60;99.90;;;;;;4753133;30;20184;-90
2023/02/03 04:19:03;;;;;;;12.13;7.03;;;7.60;99.90;;;;;;4752208;30;20193;-89
2023/02/03 04:21:28;;;;;;;20.30;7.60;;;7.70;99.90;;;;;;4753241;30;20250;-90
2023/02/03 04:23:55;;;;;;;12.33;7.30;;;7.70;99.90;;;;;;4752952;30;20224;-90
2023/02/03 04:26:22;;;;;;;10.43;7.17;;;7.70;99.90;;;;;;4752977;30;20177;-88
2023/02/03 04:28:47;;;;;;;13.87;7.63;;;7.70;99.90;;;;;;4754267;30;20176;-89
2023/02/03 04:31:13;;;;;;;14.73;6.97;;;7.60;99.90;;;;;;4752793;30;20184;-89
2023/02/03 04:33:39;;;;;;;12.43;7.17;;;7.60;99.90;;;;;;4752695;30;20204;-89
2023/02/03 04:36:05;;;;;;;12.17;6.57;;;7.70;99.90;;;;;;4752939;30;20180;-87
2023/02/03 04:38:32;;;;;;;13.93;6.50;;;7.70;99.90;;;;;;4752764;30;20181;-88
2023/02/03 04:40:57;;;;;;;13.93;6.83;;;7.70;99.90;;;;;;4756048;30;20196;-90
2023/02/03 04:43:23;;;;;;;15.43;6.33;;;7.70;99.90;;;;;;4771023;30;20216;-89
2023/02/03 04:45:49;;;;;;;11.90;6.70;;;7.70;99.90;;;;;;4770530;30;20176;-90
2023/02/03 04:48:15;;;;;;;13.27;7.23;;;7.70;99.90;;;;;;4770356;30;20216;-88
2023/02/03 04:50:41;;;;;;;12.23;6.60;;;7.70;99.90;;;;;;4770169;30;20647;-88
2023/02/03 04:53:06;;;;;;;14.70;6.23;;;7.80;99.90;;;;;;4769704;30;20230;-89
2023/02/03 04:55:32;;;;;;;15.53;6.30;;;7.70;99.90;;;;;;4770496;30;20188;-89
2023/02/03 04:57:59;;;;;;;11.27;5.87;;;7.80;99.90;;;;;;4770416;30;20188;-89
2023/02/03 05:00:26;;;;;;;19.13;6.53;;;7.80;99.90;;;;;;4770303;30;20220;-89
2023/02/03 05:02:52;;;;;;;11.40;5.90;;;7.70;99.90;;;;;;4770142;30;20204;-89
2023/02/03 05:05:18;;;;;;;8.80;6.20;;;7.80;99.90;;;;;;4770438;30;20211;-90
2023/02/03 05:07:44;;;;;;;16.00;6.53;;;7.80;99.90;;;;;;4770081;30;20175;-89
2023/02/03 05:10:10;;;;;;;14.03;5.83;;;7.80;99.90;;;;;;4770252;30;20658;-89
2023/02/03 05:12:36;;;;;;;10.23;5.60;;;7.80;99.90;;;;;;4769585;30;20227;-89
2023/02/03 05:15:02;;;;;;;8.87;5.60;;;7.80;99.90;;;;;;4769626;30;20191;-89
2023/02/03 05:17:28;;;;;;;12.20;6.43;;;7.70;99.90;;;;;;4770025;30;20191;-89
2023/02/03 05:19:53;;;;;;;13.23;5.77;;;7.80;99.90;;;;;;4769797;30;20233;-88
2023/02/03 05:22:19;;;;;;;9.67;5.87;;;7.80;99.90;;;;;;4769764;30;20233;-89
2023/02/03 05:24:45;;;;;;;11.47;6.03;;;7.80;99.90;;;;;;4770361;30;20724;-89
2023/02/03 05:27:10;;;;;;;11.97;6.10;;;7.90;99.90;;;;;;4769595;30;20172;-90
2023/02/03 05:29:36;;;;;;;13.27;6.07;;;7.90;99.90;;;;;;4769264;30;20215;-90
2023/02/03 05:32:02;;;;;;;9.50;5.53;;;7.80;99.90;;;;;;4769235;30;20194;-89
2023/02/03 05:34:28;;;;;;;13.17;6.20;;;7.80;99.90;;;;;;4769346;30;20212;-90
2023/02/03 05:36:54;;;;;;;12.23;5.87;;;7.90;99.90;;;;;;4769213;30;20188;-89
2023/02/03 05:39:19;;;;;;;13.27;6.23;;;7.80;99.90;;;;;;4769699;30;20312;-90
2023/02/03 05:41:51;;;;;;;9.27;6.20;;;7.80;99.90;;;;;;4759894;30;20226;-89
2023/02/03 05:44:18;;;;;;;13.53;6.67;;;7.90;99.90;;;;;;4751287;30;20216;-90
2023/02/03 05:46:44;;;;;;;10.93;6.33;;;7.90;99.90;;;;;;4751478;30;20187;-88
2023/02/03 05:49:09;;;;;;;9.37;5.90;;;7.90;99.90;;;;;;4751580;30;20176;-90
2023/02/03 05:51:35;;;;;;;13.47;5.83;;;7.90;99.90;;;;;;4763793;30;20184;-90
2023/02/03 05:54:01;;;;;;;9.47;5.83;;;7.90;99.90;;;;;;4761256;30;20209;-89
2023/02/03 05:56:27;;;;;;;13.57;5.73;;;7.80;99.90;;;;;;4752998;30;20176;-90
2023/02/03 05:58:53;;;;;;;11.70;5.67;;;8.00;99.90;;;;;;4751804;30;20191;-89
2023/02/03 06:01:19;;;;;;;13.33;6.23;;;8.00;99.90;;;;;;4751585;30;20191;-89
2023/02/03 06:03:45;;;;;;;10.20;5.60;;;7.90;99.90;;;;;;4751150;30;20216;-90
2023/02/03 06:06:11;;;;;;;10.70;5.17;;;8.00;99.90;;;;;;4751588;30;20263;-89
2023/02/03 06:08:37;;;;;;;11.47;6.03;;;7.90;99.90;;;;;;4751478;30;20340;-89
2023/02/03 06:11:03;;;;;;;9.67;5.33;;;8.00;99.90;;;;;;4755081;30;20232;-89
2023/02/03 06:13:30;;;;;;;10.73;5.57;;;7.90;99.90;;;;;;4769047;30;20203;-89
2023/02/03 06:15:56;;;;;;;16.17;5.50;;;7.90;99.90;;;;;;4769253;30;20180;-88
2023/02/03 06:18:22;;;;;;;9.70;5.23;;;8.00;99.90;;;;;;4769313;30;20188;-91
2023/02/03 06:20:48;;;;;;;11.33;5.67;;;8.00;99.90;;;;;;4769495;30;20191;-88
2023/02/03 06:23:16;;;;;;;11.77;4.97;;;8.10;99.90;;;;;;4769374;30;20204;-88
2023/02/03 06:25:42;;;;;;;9.23;4.77;;;8.00;99.90;;;;;;4769652;30;20710;-90
2023/02/03 06:28:08;;;;;;;8.17;4.60;;;8.20;99.90;;;;;;4770800;30;20172;-90
2023/02/03 06:30:34;;;;;;;8.67;4.93;;;8.20;99.90;;;;;;4769748;30;20184;-90
2023/02/03 06:32:59;;;;;;;15.30;5.43;;;8.20;99.90;;;;;;4769644;30;20235;-88
2023/02/03 06:35:25;;;;;;;12.80;4.57;;;8.20;99.90;;;;;;4769689;30;20180;-89
2023/02/03 06:37:51;;;;;;;11.37;4.60;;;8.20;99.90;;;;;;4769583;30;20184;-90
2023/02/03 06:40:17;;;;;;;11.47;5.03;;;8.10;99.90;;;;;;4769430;30;20184;-91
2023/02/03 06:42:47;;;;;;;10.93;4.70;;;8.00;99.90;;;;;;4770803;30;20229;-90
2023/02/03 06:45:13;;;;;;;8.60;4.60;;;8.00;99.90;;;;;;4772596;30;20211;-91
2023/02/03 06:47:44;;;;;;;12.07;5.27;;;8.00;99.90;;;;;;4772656;30;20176;-88
2023/02/03 06:50:12;;;;;;;9.47;5.37;;;7.90;99.90;;;;;;4772774;30;20240;-90
2023/02/03 06:52:38;;;;;;;15.87;5.40;;;7.90;99.90;;;;;;4772563;30;20210;-91
2023/02/03 06:55:05;;;;;;;11.53;5.07;;;7.90;99.90;;;;;;4772304;30;20240;-92
2023/02/03 06:57:32;;;;;;;12.50;5.10;;;7.90;99.90;;;;;;4774379;30;20180;-93
2023/02/03 06:59:58;;;;;;;8.97;5.00;;;7.90;99.90;;;;;;4773075;30;20268;-91
2023/02/03 07:02:23;;;;;;;14.57;4.93;;;7.90;99.90;;;;;;4773186;30;20703;-92
2023/02/03 07:04:49;;;;;;;9.97;4.77;;;7.90;99.90;;;;;;4773438;30;20701;-91
2023/02/03 07:07:16;;;;;;;8.17;5.03;;;7.80;99.90;;;;;;4772758;30;20207;-89
2023/02/03 07:09:42;;;;;;;11.73;5.10;;;7.80;99.90;;;;;;4773102;30;20184;-90
2023/02/03 07:12:08;;;;;;;13.50;4.77;;;7.80;99.90;;;;;;4772204;30;20231;-91
2023/02/03 07:14:34;;;;;;;9.17;4.50;;;7.90;99.90;;;;;;4772426;30;20216;-91
2023/02/03 07:17:02;;;;;;;6.67;4.80;;;7.90;99.90;;;;;;4772265;30;20184;-91
2023/02/03 07:19:28;;;;;;;10.13;4.23;;;7.90;99.90;;;;;;4772412;30;20180;-92
2023/02/03 07:21:54;;;;;;;11.10;4.77;;;7.80;99.90;;;;;;4772633;30;20188;-93
2023/02/03 07:24:19;;;;;;;10.73;4.93;;;7.80;99.90;;;;;;4772322;30;20230;-90
2023/02/03 07:26:45;;;;;;;11.90;4.10;;;7.80;99.90;;;;;;4772373;30;20199;-90
2023/02/03 07:29:11;;;;;;;6.53;4.17;;;7.80;99.90;;;;;;4772569;30;20198;-89
2023/02/03 07:31:38;;;;;;;5.60;3.83;;;7.80;99.90;;;;;;4772327;30;20701;-91
2023/02/03 07:34:05;;;;;;;6.67;3.90;;;7.90;99.90;;;;;;4772532;30;20218;-90
2023/02/03 07:36:31;;;;;;;8.13;4.43;;;7.90;99.90;;;;;;4771759;30;20253;-91
2023/02/03 07:38:57;;;;;;;5.33;3.63;;;7.80;99.90;;;;;;4772158;30;20263;-91
2023/02/03 07:41:23;;;;;;;11.27;4.13;;;7.90;99.90;;;;;;4771981;30;20181;-90
2023/02/03 07:43:49;;;;;;;7.43;4.27;;;7.80;99.90;;;;;;4771500;30;20264;-93
2023/02/03 07:46:15;;;;;;;8.80;3.80;;;7.90;99.90;;;;;;4772413;30;20651;-90
2023/02/03 07:48:41;;;;;;;7.67;4.00;;;7.80;99.90;;;;;;4772433;30;20180;-91
2023/02/03 07:51:06;;;;;;;5.43;3.80;;;7.90;99.90;;;;;;4772387;30;20177;-89
2023/02/03 07:53:33;;;;;;;6.37;3.67;;;7.90;99.90;;;;;;4772055;30;20273;-93
2023/02/03 07:56:03;;;;;;;5.40;3.83;;;7.90;99.90;;;;;;4771588;30;20749;-90
2023/02/03 07:58:29;;;;;;;9.60;3.50;;;7.80;99.90;;;;;;4771921;30;20202;-89
2023/02/03 08:00:56;;;;;;;5.13;3.43;;;7.80;99.90;;;;;;4771855;30;20191;-91
2023/02/03 08:03:24;;;;;;;4.30;3.37;;;7.90;99.90;;;;;;4771843;30;20292;-88
2023/02/03 08:05:50;;;;;;;6.67;3.40;;;7.90;99.90;;;;;;4771921;30;20697;-90
2023/02/03 08:08:16;;;;;;;9.37;3.17;;;7.90;99.90;;;;;;4772031;30;20184;-92
2023/02/03 08:10:42;;;;;;;5.70;3.47;;;8.00;99.90;;;;;;4772929;30;20183;-91
2023/02/03 08:13:08;;;;;;;5.43;3.10;;;8.10;99.90;;;;;;4771384;30;20212;-92
2023/02/03 08:15:35;;;;;;;4.73;2.90;;;8.10;99.90;;;;;;4771581;30;20564;-90
2023/02/03 08:18:01;;;;;;;5.47;3.23;;;8.10;99.90;;;;;;4771761;30;20196;-92
2023/02/03 08:20:27;;;;;;;5.90;2.73;;;8.10;99.90;;;;;;4771735;30;20198;-93
2023/02/03 08:22:53;;;;;;;3.77;3.10;;;8.20;99.90;;;;;;4771588;30;20311;-91
2023/02/03 08:25:18;;;;;;;4.07;3.37;;;8.20;99.90;;;;;;4773088;30;20683;-90
2023/02/03 08:27:44;;;;;;;8.33;3.23;;;8.20;99.90;;;;;;4771385;30;20534;-90
2023/02/03 08:30:12;;;;;;;3.60;3.23;;;8.20;99.90;;;;;;4771494;30;20525;-91
2023/02/03 08:32:38;;;;;;;5.03;3.40;;;8.20;99.90;;;;;;4771506;30;20187;-92
2023/02/03 08:35:07;;;;;;;6.20;3.70;;;8.20;99.90;;;;;;4771752;30;20180;-93
2023/02/03 08:37:33;;;;;;;7.63;3.73;;;8.20;99.90;;;;;;4771776;30;20284;-90
2023/02/03 08:39:59;;;;;;;9.43;4.10;;;8.20;99.90;;;;;;4771231;30;20188;-94
2023/02/03 08:42:25;;;;;;;7.73;4.20;;;8.20;99.90;;;;;;4771701;30;20192;-90
2023/02/03 08:44:51;;;;;;;9.40;4.60;;;8.20;99.90;;;;;;4771299;30;20212;-90
2023/02/03 08:47:17;;;;;;;7.93;5.10;;;8.20;99.90;;;;;;4772190;30;20541;-92
2023/02/03 08:49:43;;;;;;;7.53;5.00;;;8.20;99.90;;;;;;4771648;30;20180;-91
2023/02/03 08:52:11;;;;;;;9.97;5.07;;;8.30;99.90;;;;;;4771273;30;20187;-91
2023/02/03 08:54:38;;;;;;;12.30;4.70;;;8.40;99.90;;;;;;4770395;30;20245;-92
2023/02/03 08:57:05;;;;;;;9.07;5.00;;;8.40;99.90;;;;;;4771460;30;20191;-92
2023/02/03 08:59:34;;;;;;;9.17;5.13;;;8.30;99.90;;;;;;4771242;30;20263;-92
2023/02/03 09:02:02;;;;;;;11.10;5.40;;;8.30;99.90;;;;;;4778349;30;20191;-91
2023/02/03 09:04:28;;;;;;;11.40;5.57;;;8.40;99.90;;;;;;4776069;30;20213;-90
2023/02/03 09:06:54;;;;;;;8.80;5.03;;;8.40;99.90;;;;;;4783028;30;20654;-91
2023/02/03 09:09:21;;;;;;;8.37;4.87;;;8.40;99.90;;;;;;4788864;30;20545;-91
2023/02/03 09:11:54;;;;;;;9.30;5.07;;;8.50;99.90;;;;;;4788103;30;20295;-92
2023/02/03 09:14:20;;;;;;;9.20;5.27;;;8.40;99.90;;;;;;4788544;30;20237;-91
2023/02/03 09:16:46;;;;;;;13.03;5.27;;;8.50;99.90;;;;;;4788686;30;20225;-93
2023/02/03 09:19:12;;;;;;;13.73;5.40;;;8.50;99.90;;;;;;4788369;30;20582;-92
2023/02/03 09:21:38;;;;;;;9.37;5.27;;;8.60;99.90;;;;;;4787640;30;20179;-92
2023/02/03 09:24:04;;;;;;;11.60;5.27;;;8.70;99.90;;;;;;4787403;30;20223;-91
2023/02/03 09:26:30;;;;;;;8.37;5.10;;;8.70;99.90;;;;;;4770817;30;20203;-93
2023/02/03 09:28:56;;;;;;;13.40;5.40;;;8.60;99.90;;;;;;4769713;30;20251;-90
2023/02/03 09:31:22;;;;;;;9.90;4.83;;;8.60;99.90;;;;;;4769483;30;20326;-90
2023/02/03 09:33:47;;;;;;;11.97;5.10;;;8.60;99.90;;;;;;4769369;30;20710;-92
2023/02/03 09:36:13;;;;;;;9.27;4.60;;;8.60;99.90;;;;;;4769955;30;20176;-90
2023/02/03 09:38:39;;;;;;;13.50;4.77;;;8.60;99.90;;;;;;4769348;30;20701;-93
2023/02/03 09:41:43;;;;;;;7.80;4.50;;;8.60;99.90;;;;;;4769424;30;20192;-93
2023/02/03 09:44:29;;;;;;;14.47;4.67;;;8.60;99.90;;;;;;4769553;30;20637;-90
2023/02/03 09:47:04;;;;;;;6.77;3.90;;;8.70;99.90;;;;;;4769217;30;20612;-92
2023/02/03 09:49:33;;;;;;;9.67;3.53;;;8.70;99.90;;;;;;4770271;30;20172;-89
2023/02/03 09:52:08;;;;;;;11.17;4.27;;;8.70;99.90;;;;;;4769291;30;20176;-91
2023/02/03 09:54:33;;;;;;;7.83;3.57;;;8.60;99.90;;;;;;4768974;30;20231;-91
2023/02/03 09:57:03;;;;;;;9.27;3.67;;;8.60;99.90;;;;;;4769786;30;20280;-91
2023/02/03 09:59:33;;;;;;;11.73;4.20;;;8.60;99.90;;;;;;4769727;30;20191;-91
2023/02/03 10:02:32;;;;;;;9.37;4.07;;;8.60;99.90;;;;;;4770006;30;20215;-92
2023/02/03 10:05:17;;;;;;;13.77;3.70;;;8.60;99.90;;;;;;4768806;30;20298;-91
2023/02/03 10:08:11;;;;;;;10.10;3.10;;;8.70;99.90;;;;;;4769356;30;20624;-90
2023/02/03 10:10:48;;;;;;;10.83;3.17;;;8.60;99.90;;;;;;4768116;30;20230;-87
2023/02/03 10:13:13;;;;;;;9.33;3.80;;;8.60;99.90;;;;;;4768862;30;20219;-91
2023/02/03 10:16:15;;;;;;;10.83;3.37;;;8.70;99.90;;;;;;4769711;30;20184;-91
2023/02/03 10:18:54;;;;;;;16.20;3.80;;;8.70;99.90;;;;;;4769577;30;20183;-90
2023/02/03 10:21:46;;;;;;;7.87;3.23;;;8.70;99.90;;;;;;4770068;30;20184;-91
2023/02/03 10:24:20;;;;;;;12.77;3.83;;;8.60;99.90;;;;;;4768179;30;20353;-92
2023/02/03 10:26:46;;;;;;;12.03;3.30;;;8.60;99.90;;;;;;4768877;30;20221;-91
2023/02/03 10:29:38;;;;;;;7.67;2.90;;;8.70;99.90;;;;;;4769219;30;20243;-92
2023/02/03 10:32:09;;;;;;;10.40;3.40;;;8.70;99.90;;;;;;4759117;30;20226;-91
2023/02/03 10:34:36;;;;;;;9.60;2.30;;;8.70;99.90;;;;;;4769900;29;20203;-90
2023/02/03 10:37:13;;;;;;;10.63;1.90;;;8.50;99.90;;;;;;4769191;30;20180;-88
2023/02/03 10:39:42;;;;;;;6.77;1.63;;;7.80;99.90;;;;;;4769182;30;20661;-89
2023/02/03 10:42:10;;;;;;;9.77;1.57;;;7.50;99.90;;;;;;4768753;30;20192;-90
2023/02/03 10:44:47;;;;;;;6.80;1.43;;;7.50;99.90;;;;;;4768870;30;20215;-89
2023/02/03 10:47:20;;;;;;;3.73;1.10;;;7.50;99.90;;;;;;4768742;30;20725;-89
2023/02/03 10:49:49;;;;;;;6.27;1.47;;;7.60;99.90;;;;;;4768980;30;20267;-90
2023/02/03 10:52:26;;;;;;;6.87;1.53;;;7.70;99.90;;;;;;4768549;30;20266;-88
2023/02/03 10:54:52;;;;;;;6.83;1.73;;;7.70;99.90;;;;;;4768679;30;20184;-89
2023/02/03 10:57:19;;;;;;;8.47;1.50;;;7.80;99.90;;;;;;4768388;30;20195;-88
2023/02/03 10:59:46;;;;;;;7.07;1.47;;;7.70;99.90;;;;;;4768635;30;20188;-88
2023/02/03 11:02:28;;;;;;;9.03;1.57;;;7.80;99.90;;;;;;4768788;30;20184;-89
2023/02/03 11:05:09;;;;;;;5.77;1.63;;;7.80;99.90;;;;;;4768686;30;20207;-89
2023/02/03 11:07:35;;;;;;;4.57;1.20;;;7.90;99.90;;;;;;4768441;30;20268;-89
2023/02/03 11:10:02;;;;;;;15.00;3.10;;;8.00;99.90;;;;;;4768624;30;20648;-89
2023/02/03 11:12:27;;;;;;;11.87;2.00;;;8.00;99.90;;;;;;4768314;30;20236;-89
2023/02/03 11:14:53;;;;;;;7.20;2.07;;;8.10;99.90;;;;;;4768855;30;20184;-90
2023/02/03 11:17:22;;;;;;;8.50;2.00;;;8.00;99.90;;;;;;4769070;30;20234;-90
2023/02/03 11:19:50;;;;;;;10.73;2.17;;;8.10;99.90;;;;;;4769022;30;20267;-90
2023/02/03 11:22:30;;;;;;;12.73;2.03;;;8.20;99.90;;;;;;4768618;30;20188;-88
2023/02/03 11:24:57;;;;;;;10.23;2.00;;;8.20;99.90;;;;;;4768733;30;20683;-90
2023/02/03 11:27:24;;;;;;;5.87;1.63;;;8.20;99.90;;;;;;4769918;30;20178;-90
2023/02/03 11:30:13;;;;;;;10.07;2.30;;;8.20;99.90;;;;;;4770731;30;20188;-89
2023/02/03 11:32:41;;;;;;;18.53;2.60;;;8.10;99.90;;;;;;4772045;30;20192;-91
2023/02/03 11:35:20;;;;;;;19.27;3.40;;;8.10;99.90;;;;;;4771839;30;20184;-87
2023/02/03 11:38:00;;;;;;;16.37;2.30;;;8.20;99.90;;;;;;4771944;30;20183;-89
2023/02/03 11:40:29;;;;;;;15.60;2.43;;;8.20;99.90;;;;;;4771576;30;20614;-91
2023/02/03 11:42:55;;;;;;;11.77;2.13;;;8.30;99.90;;;;;;4772885;30;20204;-90
2023/02/03 11:45:32;;;;;;;21.07;3.23;;;8.30;99.90;;;;;;4772318;30;20212;-90
2023/02/03 11:48:01;;;;;;;10.63;2.40;;;8.30;99.90;;;;;;4773048;30;20187;-90
2023/02/03 11:50:48;;;;;;;16.00;2.57;;;8.20;99.90;;;;;;4772409;30;20180;-91
2023/02/03 11:53:20;;;;;;;18.60;2.70;;;8.20;99.90;;;;;;4771704;30;20200;-90
2023/02/03 11:55:46;;;;;;;13.97;2.70;;;8.20;99.90;;;;;;4771949;30;20314;-90
2023/02/03 11:58:17;;;;;;;17.37;2.97;;;8.30;99.90;;;;;;4771944;30;20228;-91
2023/02/03 12:00:55;;;;;;;13.63;3.17;;;8.30;99.90;;;;;;4771877;30;20203;-90
2023/02/03 12:03:40;;;;;;;15.37;3.10;;;8.30;99.90;;;;;;4771801;30;20208;-92
2023/02/03 12:06:18;;;;;;;21.33;3.10;;;8.40;99.90;;;;;;4772116;30;20204;-90
2023/02/03 12:09:01;;;;;;;19.90;2.97;;;8.40;99.90;;;;;;4772110;30;20175;-89
2023/02/03 12:11:47;;;;;;;15.70;2.83;;;8.40;99.90;;;;;;4771439;30;20228;-91
2023/02/03 12:14:32;;;;;;;16.30;3.40;;;8.50;99.90;;;;;;4771802;30;20740;-89
2023/02/03 12:17:33;;;;;;;15.60;3.30;;;8.50;99.90;;;;;;4771692;30;20271;-91
2023/02/03 12:20:02;;;;;;;18.00;4.37;;;8.60;99.90;;;;;;4771809;30;20226;-90
2023/02/03 12:22:47;;;;;;;22.70;3.93;;;8.60;99.90;;;;;;4771745;30;20195;-90
2023/02/03 12:25:47;;;;;;;19.67;3.30;;;8.60;99.90;;;;;;4771606;30;20231;-92
2023/02/03 12:28:30;;;;;;;19.37;3.63;;;8.70;99.90;;;;;;4771951;30;20180;-90
2023/02/03 12:31:08;;;;;;;23.47;3.83;;;8.70;99.90;;;;;;4771599;30;20200;-91
2023/02/03 12:33:42;;;;;;;21.17;3.57;;;8.80;99.90;;;;;;4772804;30;20730;-93
2023/02/03 12:36:14;;;;;;;25.90;4.03;;;8.90;99.90;;;;;;4771974;30;20715;-93
2023/02/03 12:38:52;;;;;;;19.00;3.20;;;8.90;99.90;;;;;;4772116;30;20188;-90
2023/02/03 12:41:38;;;;;;;19.60;3.77;;;9.00;99.90;;;;;;4771432;30;20176;-90
2023/02/03 12:45:05;;;;;;;18.07;2.93;;;9.00;99.90;;;;;;4771304;30;20222;-91
2023/02/03 12:47:53;;;;;;;16.40;3.27;;;8.90;99.90;;;;;;4770656;30;20192;-91
2023/02/03 12:50:45;;;;;;;18.57;3.30;;;8.90;99.90;;;;;;4771773;30;20187;-91
2023/02/03 12:53:18;;;;;;;18.83;3.93;;;9.00;99.90;;;;;;4771741;30;20207;-90
2023/02/03 12:56:01;;;;;;;16.30;3.17;;;9.00;99.90;;;;;;4771572;30;20192;-92
2023/02/03 12:58:44;;;;;;;15.13;3.63;;;9.10;99.90;;;;;;4771424;30;20210;-90
2023/02/03 13:01:49;;;;;;;13.10;3.27;;;9.10;99.90;;;;;;4769817;30;20214;-90
2023/02/03 13:04:20;;;;;;;15.13;2.87;;;9.10;99.90;;;;;;4719572;30;20221;-91
2023/02/03 13:06:52;;;;;;;13.60;2.77;;;9.10;99.90;;;;;;4719785;30;20177;-90
2023/02/03 13:09:37;;;;;;;21.30;3.40;;;9.10;99.90;;;;;;4746501;30;20192;-92